map of VNE home
VNE - Airport
Location
City:  Vannes, Bretagne, France
Name:Meucon
ICAO:LFRV
IATA:VNE

Details
Type:Airport (Aerodrome, Airfield)
Use:Public/Civil
Latitude:4743'09"N (47.719244)
Longitude:243'24"W (-2.723377)
Elevation:446 ft (136 m)
Variation:0.81W (WMM2015 magnetic declination)
0.14 annual change
Runways:2
Longest:5020 × 148 ft (1530 × 45 m)

Time
Time Zone:UTC+1 (DST+2)
Local Time:

Weather
METAR:LFRV 210530Z AUTO 04006KT 7000 NSC 06/05 Q1027

Related Locations
Nearby:
Farthest:NZTI: 12086 mi / 19451 km
Taieri, OTA, NZ

Find:

   beyond  
but within

Other Information
Maps:
NOTAMs:
Links:
Sources:

  
  • flag of France
  • flag of Bretagne
  

Sectional Chart

Flight Planning
at skyvector.com

Satellite Image

Google Maps Satellite view

 

Copyright © 2004-2018 Karl L. Swartz. All rights reserved.
The Great Circle Mapper name and logo are trademarks of the Great Circle Mapper.
All other trademarks mentioned herein belong to their respective owners.
Please see credits for attibutions and further copyright information.

  Follow gcmap on Facebook Follow gcmap on Twitter Follow gcmap on Google+ GCmap on LinkedIn

hCard Microformat

Geo Microformat